Vienna, Ohio
Current Conditions -  °F | °C
As of 11:51 PM on Sunday 19 Oct 2014 (Local Time) from KYNG Reporting Station
Broken Clouds Broken Clouds  
Wind Chill: 38°   Ceiling: 18000
Heat Index: 42°   Visibility: 10mi
Dew Point: 34°   Wind: 6mph
Humidity: 73%   Direction: 190°S
Pressure: 30.04"   Gusts: NA
Location:  41.24°N, 80.66°W
Report Text: KYNG 200351Z 19005KT 10SM FEW140 BKN180 BKN250 06/01 A3004 RMK AO2 SLP178 T00560011
Loading
Personal Weather Stations






























Interactive Weather Map
Tropical Storm Tracking
New forecast layout! Learn more

10-Day Weather Forecast

Advertisements
Track Severe Weather on mobile